Time;durP1;ratioP1;P1;durP2;ratioP2;P2;SDS_P1;SDS_P2;PMS_P1;PMS_P2;Temp;Humidity;BMP_temperature;BMP_pressure;BME280_temperature;BME280_humidity;BME280_pressure;Samples;Min_cycle;Max_cycle;Signal;HPM_P1;HPM_P2
2021/04/11 00:00:20;;;;;;;0.73;0.28;;;9.80;75.40;;;;;;4993143;28;20030;-79
2021/04/11 00:02:46;;;;;;;0.52;0.20;;;9.80;75.50;;;;;;4993019;28;20388;-79
2021/04/11 00:05:13;;;;;;;0.95;0.52;;;9.80;75.40;;;;;;4997849;28;20034;-79
2021/04/11 00:07:39;;;;;;;1.17;0.38;;;9.80;75.40;;;;;;4995811;28;20039;-80
2021/04/11 00:10:13;;;;;;;0.20;0.10;;;9.80;75.40;;;;;;4995526;28;20042;-79
2021/04/11 00:12:39;;;;;;;2.10;0.47;;;9.80;75.30;;;;;;4996339;28;20029;-79
2021/04/11 00:15:08;;;;;;;0.30;0.20;;;9.80;75.30;;;;;;4997053;28;20038;-79
2021/04/11 00:17:34;;;;;;;0.17;0.03;;;9.80;75.20;;;;;;4996142;28;20394;-79
2021/04/11 00:20:00;;;;;;;1.35;0.57;;;9.80;75.30;;;;;;4996344;28;20519;-79
2021/04/11 00:22:26;;;;;;;1.38;0.80;;;9.80;75.40;;;;;;4992234;28;20026;-79
2021/04/11 00:24:52;;;;;;;0.35;0.20;;;9.70;75.50;;;;;;4995702;28;20026;-79
2021/04/11 00:27:18;;;;;;;0.95;0.50;;;9.70;75.50;;;;;;4997041;28;20049;-79
2021/04/11 00:29:44;;;;;;;0.63;0.30;;;9.70;75.60;;;;;;4997100;28;20486;-80
2021/04/11 00:32:10;;;;;;;0.93;0.03;;;9.60;75.60;;;;;;4996678;28;20034;-79
2021/04/11 00:34:37;;;;;;;0.98;0.75;;;9.60;75.60;;;;;;4994856;28;20395;-81
2021/04/11 00:37:03;;;;;;;0.75;0.15;;;9.60;75.60;;;;;;4979556;28;20054;-80
2021/04/11 00:39:29;;;;;;;4.82;0.75;;;9.50;75.60;;;;;;4996647;28;20037;-79
2021/04/11 00:41:57;;;;;;;0.50;0.25;;;9.60;75.70;;;;;;4997085;28;20030;-79
2021/04/11 00:44:23;;;;;;;1.90;0.77;;;9.60;75.70;;;;;;4979449;28;20041;-80
2021/04/11 00:46:54;;;;;;;1.98;0.30;;;9.60;75.60;;;;;;4996197;28;20069;-79
2021/04/11 00:49:33;;;;;;;2.53;1.20;;;9.60;75.60;;;;;;4978946;28;20408;-79
2021/04/11 00:52:00;;;;;;;3.22;0.95;;;9.50;75.50;;;;;;5028086;28;20034;-79
2021/04/11 00:54:26;;;;;;;3.10;0.65;;;9.50;75.50;;;;;;4996256;28;20034;-79
2021/04/11 00:56:52;;;;;;;0.40;0.35;;;9.60;75.60;;;;;;4995413;28;20046;-79
2021/04/11 00:59:19;;;;;;;1.08;0.65;;;9.50;75.60;;;;;;4996625;28;20030;-79
2021/04/11 01:01:45;;;;;;;1.45;0.40;;;9.50;75.60;;;;;;4994941;28;20030;-79
2021/04/11 01:04:12;;;;;;;4.63;0.80;;;9.50;75.60;;;;;;4995677;28;20026;-79
2021/04/11 01:06:54;;;;;;;2.85;0.52;;;9.50;75.50;;;;;;4994892;28;20041;-80
2021/04/11 01:09:32;;;;;;;1.17;0.75;;;9.60;75.50;;;;;;4995327;28;20041;-80
2021/04/11 01:11:59;;;;;;;0.75;0.22;;;9.50;75.40;;;;;;4994941;28;20506;-79
2021/04/11 01:14:27;;;;;;;2.63;0.98;;;9.50;75.40;;;;;;4994722;28;20487;-79
2021/04/11 01:16:53;;;;;;;1.35;0.28;;;9.60;75.50;;;;;;4994599;28;20034;-79
2021/04/11 01:19:22;;;;;;;1.80;1.10;;;9.50;75.50;;;;;;4994226;28;20026;-79
2021/04/11 01:21:59;;;;;;;3.15;1.08;;;9.50;75.50;;;;;;4994531;28;20042;-80
2021/04/11 01:24:38;;;;;;;1.48;0.60;;;9.50;75.60;;;;;;4994845;28;20034;-79
2021/04/11 01:27:09;;;;;;;2.53;1.38;;;9.40;75.60;;;;;;4994744;28;20041;-82
2021/04/11 01:29:35;;;;;;;2.35;0.73;;;9.40;75.70;;;;;;4994804;28;20472;-80
2021/04/11 01:32:02;;;;;;;1.00;0.75;;;9.40;75.80;;;;;;4994515;28;20053;-79
2021/04/11 01:34:28;;;;;;;3.28;1.63;;;9.40;75.90;;;;;;4993839;28;20030;-79
2021/04/11 01:36:54;;;;;;;2.53;0.60;;;9.40;76.00;;;;;;4976599;28;20041;-79
2021/04/11 01:39:29;;;;;;;1.55;0.65;;;9.40;75.90;;;;;;4991265;28;20038;-80
2021/04/11 01:41:55;;;;;;;3.67;1.88;;;9.40;75.80;;;;;;4994593;28;20022;-79
2021/04/11 01:44:24;;;;;;;1.95;1.00;;;9.40;75.70;;;;;;4994415;28;20034;-79
2021/04/11 01:46:51;;;;;;;2.83;0.98;;;9.50;75.60;;;;;;4993968;28;20058;-79
2021/04/11 01:49:19;;;;;;;4.57;2.28;;;9.50;75.50;;;;;;4993503;28;20476;-79
2021/04/11 01:51:47;;;;;;;2.42;1.15;;;9.50;75.50;;;;;;4995291;28;20038;-79
2021/04/11 01:54:17;;;;;;;1.70;1.15;;;9.40;75.60;;;;;;4994269;28;20029;-80
2021/04/11 01:56:43;;;;;;;5.90;0.90;;;9.40;75.60;;;;;;4994365;28;20026;-79
2021/04/11 01:59:17;;;;;;;3.15;1.23;;;9.40;75.60;;;;;;4994201;28;20031;-80
2021/04/11 02:01:50;;;;;;;1.88;0.88;;;9.40;75.60;;;;;;4993501;28;20490;-79
2021/04/11 02:04:16;;;;;;;1.33;0.50;;;9.40;75.60;;;;;;4970307;28;20372;-80
2021/04/11 02:06:44;;;;;;;0.77;0.40;;;9.40;75.60;;;;;;4982190;28;20049;-79
2021/04/11 02:09:16;;;;;;;2.55;0.82;;;9.40;75.60;;;;;;4985177;28;20391;-79
2021/04/11 02:11:42;;;;;;;10.13;1.23;;;9.50;75.60;;;;;;4972501;28;20030;-79
2021/04/11 02:14:10;;;;;;;5.53;1.20;;;9.40;75.50;;;;;;4972034;28;20395;-79
2021/04/11 02:16:36;;;;;;;5.70;1.13;;;9.50;75.50;;;;;;4989715;28;20034;-79
2021/04/11 02:19:07;;;;;;;1.92;0.88;;;9.50;75.50;;;;;;4989099;28;20022;-79
2021/04/11 02:21:33;;;;;;;3.22;1.40;;;9.50;75.40;;;;;;4988625;28;20430;-79
2021/04/11 02:23:59;;;;;;;4.00;1.10;;;9.50;75.40;;;;;;4987648;28;20031;-79
2021/04/11 02:26:25;;;;;;;3.40;1.13;;;9.50;75.30;;;;;;4970794;28;20395;-81
2021/04/11 02:28:52;;;;;;;2.90;1.42;;;9.50;75.30;;;;;;4972479;28;20042;-79
2021/04/11 02:31:19;;;;;;;2.28;0.70;;;9.50;75.40;;;;;;4989725;28;20034;-79
2021/04/11 02:33:48;;;;;;;2.50;1.33;;;9.50;75.40;;;;;;4971163;28;20030;-79
2021/04/11 02:36:15;;;;;;;4.93;1.42;;;9.50;75.50;;;;;;4988592;28;20506;-79
2021/04/11 02:38:42;;;;;;;2.25;1.27;;;9.40;75.50;;;;;;4977303;28;20034;-79
2021/04/11 02:41:08;;;;;;;5.68;1.30;;;9.40;75.50;;;;;;4993473;28;20041;-79
2021/04/11 02:43:34;;;;;;;0.50;0.15;;;9.40;75.50;;;;;;4992756;28;20395;-79
2021/04/11 02:46:00;;;;;;;0.82;0.55;;;9.40;75.50;;;;;;4992811;28;20050;-79
2021/04/11 02:48:26;;;;;;;4.03;1.13;;;9.40;75.50;;;;;;4992874;28;20041;-80
2021/04/11 02:50:52;;;;;;;3.17;1.42;;;9.40;75.50;;;;;;4993390;28;20031;-79
2021/04/11 02:53:21;;;;;;;2.58;0.90;;;9.40;75.50;;;;;;4993404;28;20030;-79
2021/04/11 02:55:47;;;;;;;4.28;1.10;;;9.40;75.60;;;;;;4993214;28;20034;-80
2021/04/11 02:58:17;;;;;;;2.80;1.13;;;9.40;75.60;;;;;;4976244;28;20415;-79
2021/04/11 03:00:46;;;;;;;3.72;1.27;;;9.30;75.50;;;;;;4992764;28;20042;-79
2021/04/11 03:03:12;;;;;;;7.38;1.50;;;9.40;75.60;;;;;;4992831;28;20022;-79
2021/04/11 03:05:39;;;;;;;1.63;1.08;;;9.40;75.60;;;;;;4994203;28;20026;-79
2021/04/11 03:08:06;;;;;;;3.28;1.08;;;9.30;75.50;;;;;;4976809;28;20043;-80
2021/04/11 03:10:35;;;;;;;2.63;0.85;;;9.30;75.60;;;;;;4992101;28;20395;-79
2021/04/11 03:13:01;;;;;;;5.40;1.90;;;9.40;75.60;;;;;;4994242;28;20035;-79
2021/04/11 03:15:27;;;;;;;1.30;0.68;;;9.30;76.30;;;;;;4992361;28;20034;-79
2021/04/11 03:17:53;;;;;;;4.40;1.90;;;9.40;75.60;;;;;;4992465;28;20056;-79
2021/04/11 03:20:25;;;;;;;1.65;0.85;;;9.30;75.60;;;;;;4992870;28;20031;-80
2021/04/11 03:22:52;;;;;;;7.00;1.40;;;9.30;75.70;;;;;;4992952;28;20037;-79
2021/04/11 03:25:19;;;;;;;1.88;0.93;;;9.30;75.70;;;;;;4959933;28;20045;-80
2021/04/11 03:28:10;;;;;;;4.50;1.50;;;9.30;75.80;;;;;;4992710;28;20046;-79
2021/04/11 03:30:43;;;;;;;3.03;1.10;;;9.20;75.70;;;;;;4978693;28;20042;-79
2021/04/11 03:33:15;;;;;;;3.95;1.83;;;9.20;75.70;;;;;;4992350;28;20392;-79
2021/04/11 03:35:43;;;;;;;1.40;0.30;;;9.20;75.70;;;;;;4992599;28;20023;-79
2021/04/11 03:38:10;;;;;;;4.07;0.80;;;9.20;75.80;;;;;;4992685;28;20018;-80
2021/04/11 03:40:38;;;;;;;2.25;1.27;;;9.20;75.90;;;;;;4991795;28;20391;-80
2021/04/11 03:43:15;;;;;;;7.82;1.52;;;9.20;75.90;;;;;;4976369;28;20046;-79
2021/04/11 03:45:41;;;;;;;3.25;1.02;;;9.20;75.90;;;;;;4991916;28;20384;-79
2021/04/11 03:48:19;;;;;;;4.35;2.05;;;9.20;76.00;;;;;;4992077;28;20034;-79
2021/04/11 03:50:49;;;;;;;8.50;1.48;;;9.10;76.00;;;;;;4993984;28;20125;-79
2021/04/11 03:53:34;;;;;;;3.60;1.35;;;9.10;76.10;;;;;;4992563;28;20022;-79
2021/04/11 03:56:03;;;;;;;4.05;2.05;;;9.10;76.10;;;;;;4977547;28;20022;-80
2021/04/11 03:58:31;;;;;;;3.17;1.08;;;9.10;76.10;;;;;;4975458;28;20045;-79
2021/04/11 04:01:09;;;;;;;0.63;0.30;;;9.00;76.00;;;;;;4991590;28;20034;-79
2021/04/11 04:03:35;;;;;;;3.70;1.00;;;9.00;76.00;;;;;;4992367;28;20026;-79
2021/04/11 04:06:03;;;;;;;1.33;0.45;;;9.00;76.10;;;;;;4992431;28;20026;-79
2021/04/11 04:08:29;;;;;;;1.50;1.17;;;9.00;76.10;;;;;;4992333;28;20030;-79
2021/04/11 04:11:14;;;;;;;3.35;0.82;;;9.00;76.10;;;;;;4993502;28;20383;-79
2021/04/11 04:13:58;;;;;;;3.72;1.30;;;9.00;76.10;;;;;;4990886;28;20041;-79
2021/04/11 04:16:56;;;;;;;1.38;0.68;;;8.90;76.00;;;;;;4990458;28;20042;-79
2021/04/11 04:19:44;;;;;;;2.15;0.93;;;8.90;76.10;;;;;;4936042;29;20036;-79
2021/04/11 04:22:40;;;;;;;6.68;1.80;;;8.90;76.00;;;;;;4951800;28;20050;-79
2021/04/11 04:25:28;;;;;;;2.10;1.52;;;8.90;76.00;;;;;;4937566;28;20412;-79
2021/04/11 04:28:01;;;;;;;4.60;1.17;;;8.90;75.90;;;;;;4933387;29;20047;-79
2021/04/11 04:30:46;;;;;;;0.98;0.65;;;8.80;75.70;;;;;;4932158;29;20509;-79
2021/04/11 04:33:53;;;;;;;1.30;0.30;;;8.80;75.80;;;;;;4933414;29;20385;-79
2021/04/11 04:36:40;;;;;;;2.15;0.52;;;8.80;75.80;;;;;;4944653;28;20544;-79
2021/04/11 04:39:18;;;;;;;21.17;1.30;;;8.80;75.80;;;;;;4932216;28;20034;-80
2021/04/11 04:41:47;;;;;;;1.35;0.63;;;8.80;75.80;;;;;;4937059;29;20035;-79
2021/04/11 04:44:28;;;;;;;0.85;0.63;;;8.80;75.80;;;;;;4936065;29;20054;-79
2021/04/11 04:47:05;;;;;;;2.13;0.88;;;8.70;75.80;;;;;;4935743;28;20047;-80
2021/04/11 04:49:55;;;;;;;3.42;1.58;;;8.60;75.80;;;;;;4949836;28;20490;-79
2021/04/11 04:52:28;;;;;;;1.35;0.65;;;8.60;75.80;;;;;;4935745;29;20043;-82
2021/04/11 04:55:06;;;;;;;0.90;0.55;;;8.60;75.90;;;;;;4920804;29;20036;-79
2021/04/11 04:57:49;;;;;;;2.92;1.30;;;8.60;76.00;;;;;;4995618;28;20035;-79
2021/04/11 05:00:35;;;;;;;0.73;0.10;;;8.60;76.00;;;;;;4994739;28;20042;-79
2021/04/11 05:03:12;;;;;;;2.20;0.68;;;8.50;76.10;;;;;;4995444;28;20027;-79
2021/04/11 05:05:46;;;;;;;1.45;0.60;;;8.50;76.10;;;;;;4995076;28;20078;-79
2021/04/11 05:08:19;;;;;;;4.55;1.42;;;8.40;76.10;;;;;;4995235;28;20038;-79
2021/04/11 05:10:48;;;;;;;2.15;0.60;;;8.40;76.10;;;;;;4995260;28;20041;-79
2021/04/11 05:13:21;;;;;;;3.65;0.88;;;8.40;76.10;;;;;;4994082;28;20072;-79
2021/04/11 05:16:07;;;;;;;1.45;0.30;;;8.40;76.10;;;;;;4994658;28;20423;-79
2021/04/11 05:18:43;;;;;;;0.63;0.40;;;8.30;76.00;;;;;;4996233;28;20296;-80
2021/04/11 05:21:15;;;;;;;3.03;1.13;;;8.30;76.10;;;;;;4995046;28;20018;-80
2021/04/11 05:23:48;;;;;;;2.67;1.40;;;8.30;76.10;;;;;;4994789;28;20029;-79
2021/04/11 05:26:26;;;;;;;2.78;0.60;;;8.30;76.20;;;;;;4994912;28;20420;-79
2021/04/11 05:28:56;;;;;;;1.77;0.73;;;8.30;76.20;;;;;;4994605;28;20054;-79
2021/04/11 05:31:27;;;;;;;1.58;0.52;;;8.20;76.20;;;;;;4993687;28;20401;-80
2021/04/11 05:33:54;;;;;;;;;;;8.20;76.30;;;;;;4995134;28;20196;-79
2021/04/11 05:36:45;;;;;;;1.52;0.82;;;8.20;76.30;;;;;;4995981;28;19914;-79
2021/04/11 05:39:18;;;;;;;;;;;8.20;76.30;;;;;;4996230;28;20034;-79
2021/04/11 05:41:44;;;;;;;1.85;0.45;;;8.20;76.30;;;;;;4994615;28;19917;-79
2021/04/11 05:44:17;;;;;;;3.17;0.98;;;8.10;76.30;;;;;;4995399;28;20026;-80
2021/04/11 05:46:53;;;;;;;2.92;0.98;;;8.10;76.40;;;;;;4994111;28;20050;-80
2021/04/11 05:49:23;;;;;;;0.45;0.40;;;8.10;76.40;;;;;;4993151;28;20053;-79
2021/04/11 05:51:55;;;;;;;1.08;0.57;;;8.10;76.40;;;;;;4978359;28;20038;-79
2021/04/11 05:54:38;;;;;;;1.25;0.70;;;8.10;76.40;;;;;;4994228;28;20026;-80
2021/04/11 05:57:09;;;;;;;3.33;1.05;;;8.10;76.40;;;;;;4994013;28;20022;-80
2021/04/11 05:59:41;;;;;;;1.15;0.60;;;8.10;76.30;;;;;;4994249;28;20053;-79
2021/04/11 06:02:11;;;;;;;3.85;1.48;;;8.10;76.20;;;;;;4993171;28;20034;-79
2021/04/11 06:04:53;;;;;;;1.10;0.10;;;8.10;76.10;;;;;;4993232;28;20037;-79
2021/04/11 06:07:26;;;;;;;4.45;1.05;;;8.20;76.10;;;;;;4992998;28;20038;-79
2021/04/11 06:10:00;;;;;;;2.58;1.05;;;8.20;76.00;;;;;;4994110;28;20484;-79
2021/04/11 06:12:43;;;;;;;0.65;0.30;;;8.20;75.90;;;;;;4993675;28;20033;-79
2021/04/11 06:15:18;;;;;;;5.38;1.08;;;8.20;76.00;;;;;;4993542;28;20029;-79
2021/04/11 06:17:45;;;;;;;0.95;0.63;;;8.20;75.90;;;;;;4993952;28;20014;-80
2021/04/11 06:20:12;;;;;;;1.15;0.50;;;8.20;76.00;;;;;;4993940;28;20022;-79
2021/04/11 06:23:11;;;;;;;3.20;1.02;;;8.20;76.00;;;;;;4993026;28;20027;-79
2021/04/11 06:25:51;;;;;;;1.95;0.82;;;8.10;75.90;;;;;;4990598;28;20033;-80
2021/04/11 06:28:21;;;;;;;1.00;0.43;;;8.20;75.90;;;;;;4991710;28;20049;-79
2021/04/11 06:31:03;;;;;;;1.10;0.40;;;8.20;75.80;;;;;;4993199;28;20057;-79
2021/04/11 06:33:36;;;;;;;1.27;0.65;;;8.30;75.80;;;;;;4993723;28;20041;-79
2021/04/11 06:36:13;;;;;;;2.38;0.20;;;8.30;75.70;;;;;;4977472;28;20106;-79
2021/04/11 06:38:42;;;;;;;0.50;0.30;;;8.20;75.70;;;;;;4993521;28;20026;-79
2021/04/11 06:41:33;;;;;;;1.38;0.35;;;8.20;75.70;;;;;;4993244;28;20042;-79
2021/04/11 06:44:27;;;;;;;0.03;0.03;;;8.20;75.70;;;;;;4979444;28;20037;-79
2021/04/11 06:47:17;;;;;;;3.10;0.45;;;8.20;75.80;;;;;;4993540;28;20491;-79
2021/04/11 06:50:01;;;;;;;0.63;0.25;;;8.10;75.80;;;;;;4979495;28;20483;-79
2021/04/11 06:52:40;;;;;;;2.35;0.80;;;8.20;75.90;;;;;;4988354;28;20049;-79
2021/04/11 06:55:33;;;;;;;1.00;0.28;;;8.10;75.80;;;;;;4993760;28;20034;-79
2021/04/11 06:58:14;;;;;;;0.82;0.73;;;8.10;75.80;;;;;;4993009;28;20038;-79
2021/04/11 07:00:46;;;;;;;;;;;8.20;75.80;;;;;;4993214;28;20522;-79
2021/04/11 07:03:31;;;;;;;;;;;8.20;75.70;;;;;;4994591;28;19910;-79
2021/04/11 07:06:20;;;;;;;3.35;0.28;;;8.20;75.70;;;;;;4994323;28;19909;-79
2021/04/11 07:09:15;;;;;;;0.80;0.40;;;8.20;75.60;;;;;;4972466;28;20486;-79
2021/04/11 07:12:18;;;;;;;0.25;0.15;;;8.20;75.50;;;;;;4913244;29;20480;-80
2021/04/11 07:15:21;;;;;;;1.42;0.32;;;8.30;75.50;;;;;;4913938;29;20505;-79
2021/04/11 07:18:08;;;;;;;6.32;0.90;;;8.30;75.40;;;;;;4912852;29;20044;-79
2021/04/11 07:20:36;;;;;;;0.47;0.30;;;8.30;75.40;;;;;;4910230;29;20036;-79
2021/04/11 07:23:23;;;;;;;0.28;0.13;;;8.30;75.30;;;;;;4897717;29;20106;-79
2021/04/11 07:25:55;;;;;;;0.28;0.17;;;8.30;75.30;;;;;;4913294;29;20040;-79
2021/04/11 07:28:42;;;;;;;0.45;0.22;;;8.30;75.30;;;;;;4898266;28;20048;-80
2021/04/11 07:31:12;;;;;;;0.95;0.47;;;8.30;75.30;;;;;;4900871;29;20157;-79
2021/04/11 07:34:00;;;;;;;2.33;1.15;;;8.30;75.30;;;;;;4911379;29;20040;-79
2021/04/11 07:37:08;;;;;;;7.85;0.47;;;8.30;75.30;;;;;;4912889;29;20032;-79
2021/04/11 07:40:19;;;;;;;0.15;0.05;;;8.30;75.30;;;;;;4838568;29;20065;-80
2021/04/11 07:42:50;;;;;;;2.20;0.80;;;8.40;75.10;;;;;;4820835;29;20043;-79
2021/04/11 07:45:45;;;;;;;6.18;1.13;;;8.40;75.00;;;;;;4819945;29;20162;-79
2021/04/11 07:48:32;;;;;;;0.90;0.47;;;8.50;74.90;;;;;;4812568;29;20411;-79
2021/04/11 07:51:13;;;;;;;7.38;1.23;;;8.50;74.80;;;;;;4857276;29;20538;-79
2021/04/11 07:54:00;;;;;;;1.45;0.20;;;8.60;74.80;;;;;;4856851;29;20048;-79
2021/04/11 07:56:38;;;;;;;1.15;0.68;;;8.60;74.70;;;;;;4854205;29;20068;-79
2021/04/11 07:59:28;;;;;;;0.95;0.52;;;8.70;74.60;;;;;;4827018;29;20033;-79
2021/04/11 08:02:06;;;;;;;1.10;0.63;;;8.70;74.50;;;;;;4857110;29;20037;-80
2021/04/11 08:05:05;;;;;;;0.30;0.30;;;8.80;74.20;;;;;;4857549;29;20061;-80
2021/04/11 08:08:01;;;;;;;0.43;0.22;;;8.90;74.10;;;;;;4857139;29;20054;-79
2021/04/11 08:10:44;;;;;;;0.00;0.00;;;9.00;73.90;;;;;;4857746;29;20511;-79
2021/04/11 08:13:47;;;;;;;0.95;0.50;;;9.10;73.60;;;;;;4857569;29;20578;-80
2021/04/11 08:16:22;;;;;;;1.08;0.55;;;9.20;73.60;;;;;;4878703;29;20525;-79
2021/04/11 08:18:56;;;;;;;1.08;0.55;;;9.30;73.30;;;;;;4930174;28;20042;-80
2021/04/11 08:21:25;;;;;;;0.40;0.25;;;9.30;73.10;;;;;;4992234;28;20030;-80
2021/04/11 08:24:15;;;;;;;0.60;0.30;;;9.40;73.00;;;;;;4992694;28;20038;-80
2021/04/11 08:27:03;;;;;;;0.43;0.20;;;9.50;72.80;;;;;;4996142;28;20049;-80
2021/04/11 08:29:41;;;;;;;1.52;0.75;;;9.60;72.50;;;;;;4996090;28;20042;-79
2021/04/11 08:32:26;;;;;;;0.20;0.10;;;9.60;72.30;;;;;;4982540;28;20499;-79
2021/04/11 08:35:14;;;;;;;0.63;0.32;;;9.70;72.20;;;;;;4995927;28;20102;-80
2021/04/11 08:38:11;;;;;;;0.32;0.32;;;9.70;72.20;;;;;;4992917;28;20038;-80
2021/04/11 08:41:04;;;;;;;1.60;0.73;;;9.80;72.10;;;;;;4993132;28;20080;-81
2021/04/11 08:43:35;;;;;;;0.90;0.38;;;9.80;71.90;;;;;;5009809;28;20034;-81
2021/04/11 08:46:26;;;;;;;0.75;0.40;;;9.80;71.90;;;;;;4992983;28;20050;-80
2021/04/11 08:49:05;;;;;;;1.88;0.25;;;9.90;71.80;;;;;;4995008;28;20277;-80
2021/04/11 08:52:00;;;;;;;0.30;0.10;;;9.90;71.70;;;;;;5010923;28;20471;-79
2021/04/11 08:54:46;;;;;;;0.45;0.20;;;9.90;71.50;;;;;;4991532;28;20120;-80
2021/04/11 08:57:27;;;;;;;7.03;0.43;;;9.90;71.20;;;;;;4989508;28;20410;-79
2021/04/11 09:00:15;;;;;;;0.57;0.43;;;10.00;71.20;;;;;;5008870;28;20074;-81
2021/04/11 09:02:50;;;;;;;1.52;0.10;;;10.20;71.00;;;;;;4981716;28;20030;-80
2021/04/11 09:05:21;;;;;;;0.00;0.00;;;10.30;70.60;;;;;;5008593;28;20038;-79
2021/04/11 09:07:59;;;;;;;0.10;0.00;;;10.40;70.30;;;;;;5011095;28;20034;-80
2021/04/11 09:10:43;;;;;;;0.88;0.35;;;10.40;70.00;;;;;;4977268;28;20500;-79
2021/04/11 09:13:32;;;;;;;0.75;0.17;;;10.50;69.70;;;;;;5010566;28;20037;-79
2021/04/11 09:16:30;;;;;;;0.40;0.38;;;10.50;69.70;;;;;;5008383;28;20041;-79
2021/04/11 09:18:56;;;;;;;0.63;0.50;;;10.50;69.70;;;;;;4982094;28;20026;-80
2021/04/11 09:21:34;;;;;;;0.10;0.10;;;10.60;69.50;;;;;;4995908;28;20041;-79
2021/04/11 09:24:29;;;;;;;0.77;0.55;;;10.70;69.40;;;;;;4994789;28;20064;-79
2021/04/11 09:27:09;;;;;;;0.40;0.17;;;10.60;69.20;;;;;;4995107;28;20137;-79
2021/04/11 09:29:52;;;;;;;0.73;0.40;;;10.60;69.10;;;;;;4994869;28;20046;-80
2021/04/11 09:32:53;;;;;;;0.90;0.35;;;10.60;69.20;;;;;;4995834;28;20038;-79
2021/04/11 09:35:24;;;;;;;0.83;0.47;;;10.60;69.10;;;;;;4978821;28;20033;-82
2021/04/11 09:38:07;;;;;;;0.35;0.20;;;10.60;68.90;;;;;;4994587;28;20038;-79
2021/04/11 09:40:58;;;;;;;0.10;0.00;;;10.60;68.80;;;;;;4990713;28;20502;-79
2021/04/11 09:43:24;;;;;;;;;;;10.70;68.70;;;;;;4980495;28;20046;-79
2021/04/11 09:45:56;;;;;;;0.93;0.40;;;10.80;68.40;;;;;;4994982;28;19977;-79
2021/04/11 09:48:54;;;;;;;0.35;0.08;;;10.90;68.00;;;;;;4995613;28;20033;-80
2021/04/11 09:51:35;;;;;;;0.00;0.00;;;11.10;68.00;;;;;;4994470;28;20014;-79
2021/04/11 09:54:39;;;;;;;0.00;0.00;;;11.20;67.50;;;;;;4994561;28;20045;-79
2021/04/11 09:57:23;;;;;;;1.50;0.82;;;11.30;67.30;;;;;;4994396;28;20037;-79
2021/04/11 10:00:00;;;;;;;1.55;0.25;;;11.30;67.00;;;;;;4995421;28;20038;-79
2021/04/11 10:02:47;;;;;;;0.00;0.00;;;11.40;67.10;;;;;;4993904;28;20050;-79
2021/04/11 10:05:40;;;;;;;0.65;0.20;;;11.50;66.60;;;;;;4981480;28;20031;-79
2021/04/11 10:08:32;;;;;;;0.77;0.40;;;11.60;66.30;;;;;;4980877;28;20030;-79
2021/04/11 10:11:29;;;;;;;0.10;0.00;;;11.70;66.00;;;;;;4978709;28;20033;-79
2021/04/11 10:14:19;;;;;;;0.70;0.47;;;11.80;65.70;;;;;;4994805;28;20027;-80
2021/04/11 10:16:58;;;;;;;0.00;0.00;;;11.80;65.50;;;;;;4991889;28;20034;-81
2021/04/11 10:19:27;;;;;;;1.25;0.50;;;11.80;64.90;;;;;;4992858;28;20039;-79
2021/04/11 10:22:12;;;;;;;0.93;0.43;;;11.70;64.60;;;;;;4995003;28;20034;-80
2021/04/11 10:24:41;;;;;;;0.50;0.20;;;11.70;64.60;;;;;;4993619;28;20034;-79
2021/04/11 10:27:10;;;;;;;0.00;0.00;;;11.60;64.70;;;;;;4993859;28;20038;-79
2021/04/11 10:29:36;;;;;;;4.40;0.32;;;11.60;64.90;;;;;;4994866;28;20042;-80
2021/04/11 10:32:49;;;;;;;0.08;0.00;;;11.60;64.50;;;;;;4993395;28;20040;-79
2021/04/11 10:35:29;;;;;;;2.50;0.75;;;11.50;64.50;;;;;;4980486;28;20396;-80
2021/04/11 10:38:12;;;;;;;0.98;0.32;;;11.50;64.40;;;;;;4993640;28;20025;-80
2021/04/11 10:40:42;;;;;;;1.90;0.73;;;11.50;64.40;;;;;;4991764;28;20026;-80
2021/04/11 10:43:14;;;;;;;1.30;0.55;;;11.60;64.10;;;;;;4992746;28;20034;-80
2021/04/11 10:45:54;;;;;;;1.83;0.70;;;11.70;63.90;;;;;;4993976;28;20411;-80
2021/04/11 10:48:38;;;;;;;1.20;0.47;;;11.80;63.90;;;;;;4992329;28;20026;-81
2021/04/11 10:51:11;;;;;;;1.05;0.45;;;11.90;63.70;;;;;;4994526;28;20033;-81
2021/04/11 10:53:55;;;;;;;1.58;0.43;;;12.00;63.40;;;;;;4993274;28;20387;-80
2021/04/11 10:56:46;;;;;;;0.00;0.00;;;12.10;63.30;;;;;;4993215;28;20022;-79
2021/04/11 10:59:14;;;;;;;0.63;0.22;;;12.30;63.90;;;;;;4976703;28;20046;-80
2021/04/11 11:01:52;;;;;;;0.17;0.08;;;12.30;63.00;;;;;;4991909;28;20030;-80
2021/04/11 11:04:52;;;;;;;7.65;0.77;;;12.20;62.90;;;;;;4991164;28;20034;-80
2021/04/11 11:07:45;;;;;;;1.20;0.25;;;12.20;62.70;;;;;;4992338;28;20045;-80
2021/04/11 11:10:19;;;;;;;0.10;0.10;;;12.20;62.80;;;;;;4991367;28;20042;-80
2021/04/11 11:13:00;;;;;;;1.65;1.05;;;12.10;62.80;;;;;;4992900;28;20019;-80
2021/04/11 11:15:34;;;;;;;0.43;0.03;;;12.20;62.90;;;;;;4993750;28;20034;-80
2021/04/11 11:18:18;;;;;;;0.45;0.20;;;12.10;62.80;;;;;;4992586;28;20037;-80
2021/04/11 11:20:57;;;;;;;0.20;0.05;;;12.10;62.70;;;;;;4994174;28;20125;-80
2021/04/11 11:23:28;;;;;;;0.80;0.25;;;12.10;62.60;;;;;;4992920;28;20459;-79
2021/04/11 11:26:26;;;;;;;3.25;0.17;;;12.10;62.70;;;;;;4992862;28;20090;-80
2021/04/11 11:28:59;;;;;;;1.55;0.55;;;12.10;62.60;;;;;;4977386;28;20042;-80
2021/04/11 11:31:25;;;;;;;0.73;0.00;;;12.10;62.30;;;;;;4992729;28;20038;-79
2021/04/11 11:34:22;;;;;;;0.55;0.28;;;12.10;62.30;;;;;;4993692;28;20030;-79
2021/04/11 11:37:01;;;;;;;5.18;0.35;;;12.00;62.10;;;;;;4993757;28;20410;-80
2021/04/11 11:39:37;;;;;;;1.13;0.75;;;12.00;62.00;;;;;;4992994;28;20034;-80
2021/04/11 11:42:06;;;;;;;0.80;0.30;;;12.00;61.70;;;;;;4992816;28;20022;-80
2021/04/11 11:45:04;;;;;;;0.00;0.00;;;11.80;61.60;;;;;;4993881;28;20023;-81
2021/04/11 11:47:54;;;;;;;0.00;0.00;;;11.70;61.50;;;;;;4942838;28;20049;-81
2021/04/11 11:50:31;;;;;;;1.13;0.32;;;11.70;61.50;;;;;;4942646;28;20047;-80
2021/04/11 11:53:11;;;;;;;0.08;0.00;;;11.70;61.50;;;;;;4939622;28;20038;-81
2021/04/11 11:56:06;;;;;;;0.50;0.30;;;11.70;61.50;;;;;;4936881;28;20500;-83
2021/04/11 11:59:13;;;;;;;0.52;0.38;;;11.90;61.40;;;;;;4969460;28;20035;-80
2021/04/11 12:01:59;;;;;;;0.00;0.00;;;12.10;61.20;;;;;;4964519;28;20035;-81
2021/04/11 12:04:44;;;;;;;0.22;0.03;;;12.20;60.70;;;;;;4958619;28;20472;-81
2021/04/11 12:07:37;;;;;;;1.40;0.38;;;12.30;60.20;;;;;;4975094;28;20038;-81
2021/04/11 12:10:17;;;;;;;0.10;0.08;;;12.40;60.00;;;;;;4967182;28;20051;-82
2021/04/11 12:12:50;;;;;;;0.15;0.00;;;12.60;59.90;;;;;;4960935;28;20034;-81
2021/04/11 12:15:28;;;;;;;1.42;0.32;;;12.80;59.70;;;;;;4942962;28;20047;-80
2021/04/11 12:17:57;;;;;;;0.80;0.32;;;13.10;59.50;;;;;;4944390;28;20090;-80
2021/04/11 12:20:27;;;;;;;2.13;0.30;;;13.20;59.00;;;;;;4975618;28;20030;-81
2021/04/11 12:23:01;;;;;;;0.20;0.15;;;13.20;58.90;;;;;;4961000;28;20046;-81
2021/04/11 12:25:31;;;;;;;0.82;0.25;;;13.30;58.80;;;;;;4992337;28;20026;-81
2021/04/11 12:28:19;;;;;;;0.52;0.17;;;13.30;58.70;;;;;;5005881;28;20030;-81
2021/04/11 12:30:45;;;;;;;4.82;0.60;;;13.40;58.50;;;;;;4995617;28;20035;-81
2021/04/11 12:33:35;;;;;;;0.40;0.10;;;13.60;58.40;;;;;;4995971;28;20030;-81
2021/04/11 12:36:19;;;;;;;0.47;0.28;;;13.70;58.30;;;;;;4995798;28;20023;-81
2021/04/11 12:38:48;;;;;;;1.42;0.40;;;13.90;58.90;;;;;;4997139;28;20425;-81
2021/04/11 12:41:19;;;;;;;2.33;0.38;;;14.20;58.10;;;;;;4995965;28;20047;-81
2021/04/11 12:43:59;;;;;;;0.73;0.28;;;14.60;57.70;;;;;;4995211;28;20038;-82
2021/04/11 12:46:28;;;;;;;5.28;0.38;;;14.90;57.20;;;;;;4994395;28;20050;-84
2021/04/11 12:49:13;;;;;;;0.15;0.10;;;15.20;56.90;;;;;;4996664;28;20034;-82
2021/04/11 12:52:09;;;;;;;0.20;0.13;;;15.20;56.50;;;;;;4995693;28;20038;-82
2021/04/11 12:54:47;;;;;;;0.38;0.25;;;14.80;56.70;;;;;;4994503;28;20031;-81
2021/04/11 12:57:23;;;;;;;3.95;0.40;;;14.50;57.00;;;;;;4975867;28;20042;-81
2021/04/11 13:00:05;;;;;;;0.30;0.20;;;14.10;57.40;;;;;;4986618;28;20041;-81
2021/04/11 13:02:51;;;;;;;6.43;0.52;;;13.90;58.60;;;;;;4994776;28;20153;-81
2021/04/11 13:05:31;;;;;;;0.22;0.00;;;13.60;58.20;;;;;;4982294;28;20031;-81
2021/04/11 13:08:25;;;;;;;1.25;0.35;;;13.40;58.80;;;;;;4979368;28;20050;-81
2021/04/11 13:11:05;;;;;;;0.35;0.10;;;13.10;58.30;;;;;;4996516;28;20048;-81
2021/04/11 13:13:41;;;;;;;0.77;0.40;;;12.90;58.30;;;;;;4978931;28;20026;-80
2021/04/11 13:16:23;;;;;;;1.17;0.25;;;12.80;58.40;;;;;;4995524;28;20630;-80
2021/04/11 13:19:09;;;;;;;;;;;12.60;58.40;;;;;;4976369;28;20035;-80
2021/04/11 13:21:41;;;;;;;0.47;0.22;;;12.50;58.60;;;;;;4993137;28;20374;-80
2021/04/11 13:24:34;;;;;;;0.75;0.30;;;12.30;58.80;;;;;;4996360;28;20172;-80
2021/04/11 13:27:27;;;;;;;0.00;0.00;;;12.10;59.20;;;;;;4995866;28;20034;-80
2021/04/11 13:30:09;;;;;;;0.15;0.13;;;11.90;59.60;;;;;;4994903;28;20430;-80
2021/04/11 13:32:51;;;;;;;0.15;0.00;;;11.80;59.70;;;;;;4994042;28;20035;-81
2021/04/11 13:35:44;;;;;;;0.00;0.00;;;11.70;59.90;;;;;;4978828;28;20041;-80
2021/04/11 13:38:38;;;;;;;0.00;0.00;;;11.60;60.00;;;;;;4983250;28;20352;-80
2021/04/11 13:41:08;;;;;;;1.05;0.52;;;11.50;60.20;;;;;;5009522;28;20038;-80
2021/04/11 13:43:53;;;;;;;0.55;0.20;;;11.40;60.50;;;;;;4993953;28;20023;-80
2021/04/11 13:46:49;;;;;;;1.55;0.52;;;11.30;60.90;;;;;;4994408;28;20042;-80
2021/04/11 13:49:20;;;;;;;0.00;0.00;;;11.10;61.20;;;;;;4992355;28;20030;-80